createdAt,value
2016-08-11T00:00:49.913Z,967.47
2016-08-11T00:01:49.923Z,967.52
2016-08-11T00:02:49.936Z,967.47
2016-08-11T00:03:49.950Z,967.48
2016-08-11T00:04:49.952Z,967.48
2016-08-11T00:05:49.958Z,967.49
2016-08-11T00:06:49.959Z,967.47
2016-08-11T00:07:49.968Z,967.47
2016-08-11T00:08:49.983Z,967.49
2016-08-11T00:09:49.990Z,967.48
2016-08-11T00:10:49.999Z,967.5
2016-08-11T00:11:50.005Z,967.5
2016-08-11T00:12:50.014Z,967.52
2016-08-11T00:13:50.015Z,967.49
2016-08-11T00:14:50.030Z,967.5
2016-08-11T00:15:50.031Z,967.54
2016-08-11T00:16:50.041Z,967.53
2016-08-11T00:17:50.047Z,967.53
2016-08-11T00:18:50.058Z,967.52
2016-08-11T00:19:50.062Z,967.5
2016-08-11T00:20:50.067Z,967.53
2016-08-11T00:21:50.083Z,967.51
2016-08-11T00:22:50.083Z,967.54
2016-08-11T00:23:50.100Z,967.49
2016-08-11T00:24:50.107Z,967.56
2016-08-11T00:25:50.113Z,967.56
2016-08-11T00:26:50.116Z,967.59
2016-08-11T00:27:50.128Z,967.57
2016-08-11T00:28:50.136Z,967.6
2016-08-11T00:29:50.149Z,967.57
2016-08-11T00:30:50.149Z,967.62
2016-08-11T00:31:50.160Z,967.61
2016-08-11T00:32:50.159Z,967.59
2016-08-11T00:33:50.178Z,967.56
2016-08-11T00:34:50.185Z,967.6
2016-08-11T00:35:50.190Z,967.6
2016-08-11T00:36:50.193Z,967.62
2016-08-11T00:37:50.199Z,967.64
2016-08-11T00:38:50.217Z,967.65
2016-08-11T00:39:50.225Z,967.63
2016-08-11T00:40:50.224Z,967.67
2016-08-11T00:41:50.234Z,967.65
2016-08-11T00:42:50.241Z,967.63
2016-08-11T00:43:50.250Z,967.64
2016-08-11T00:44:50.255Z,967.65
2016-08-11T00:45:50.271Z,967.61
2016-08-11T00:46:50.277Z,967.62
2016-08-11T00:47:50.277Z,967.61
2016-08-11T00:48:50.286Z,967.61
2016-08-11T00:49:50.299Z,967.61
2016-08-11T00:50:50.306Z,967.61
2016-08-11T00:51:50.315Z,967.62
2016-08-11T00:52:50.316Z,967.63
2016-08-11T00:53:50.326Z,967.67
2016-08-11T00:54:50.334Z,967.68
2016-08-11T00:55:50.348Z,967.64
2016-08-11T00:56:50.357Z,967.66
2016-08-11T00:57:50.367Z,967.7
2016-08-11T00:58:50.384Z,967.67
2016-08-11T00:59:50.374Z,967.7
2016-08-11T01:00:50.377Z,967.71
2016-08-11T01:01:50.390Z,967.7
2016-08-11T01:02:50.399Z,967.68
2016-08-11T01:03:50.403Z,967.71
2016-08-11T01:04:50.408Z,967.73
2016-08-11T01:05:50.417Z,967.68
2016-08-11T01:06:50.429Z,967.73
2016-08-11T01:07:50.430Z,967.69
2016-08-11T01:08:50.445Z,967.69
2016-08-11T01:09:50.459Z,967.7
2016-08-11T01:10:50.462Z,967.74
2016-08-11T01:11:50.469Z,967.76
2016-08-11T01:12:50.479Z,967.73
2016-08-11T01:13:50.480Z,967.74
2016-08-11T01:14:50.486Z,967.74
2016-08-11T01:15:50.501Z,967.76
2016-08-11T01:16:50.508Z,967.73
2016-08-11T01:17:50.509Z,967.77
2016-08-11T01:18:50.518Z,967.78
2016-08-11T01:19:50.532Z,967.77
2016-08-11T01:20:50.534Z,967.8
2016-08-11T01:21:50.547Z,967.81
2016-08-11T01:22:50.553Z,967.84
2016-08-11T01:23:50.557Z,967.84
2016-08-11T01:24:50.570Z,967.87
2016-08-11T01:25:50.577Z,967.87
2016-08-11T01:26:50.587Z,967.88
2016-08-11T01:27:50.593Z,967.93
2016-08-11T01:28:50.601Z,967.9
2016-08-11T01:29:50.603Z,967.93
2016-08-11T01:30:50.612Z,967.89
2016-08-11T01:31:50.613Z,967.9
2016-08-11T01:32:50.631Z,967.9
2016-08-11T01:33:50.655Z,967.93
2016-08-11T01:34:50.648Z,967.92
2016-08-11T01:35:50.648Z,967.93
2016-08-11T01:36:50.659Z,967.94
2016-08-11T01:37:50.667Z,967.93
2016-08-11T01:38:50.671Z,967.98
2016-08-11T01:39:50.682Z,967.94
2016-08-11T01:40:50.692Z,967.93
2016-08-11T01:41:50.692Z,967.93
2016-08-11T01:42:50.708Z,967.93
2016-08-11T01:43:50.713Z,967.93
2016-08-11T01:44:50.716Z,967.94
2016-08-11T01:45:50.725Z,967.97
2016-08-11T01:46:50.737Z,967.96
2016-08-11T01:47:50.749Z,967.96
2016-08-11T01:48:50.748Z,967.97
2016-08-11T01:49:50.757Z,967.95
2016-08-11T01:50:50.768Z,967.98
2016-08-11T01:51:50.771Z,968.03
2016-08-11T01:52:50.782Z,967.98
2016-08-11T01:53:50.790Z,967.99
2016-08-11T01:54:50.799Z,967.96
2016-08-11T01:55:50.801Z,967.99
2016-08-11T01:56:50.811Z,967.96
2016-08-11T01:57:50.823Z,968.01
2016-08-11T01:58:50.829Z,967.98
2016-08-11T01:59:50.840Z,967.96
2016-08-11T02:00:50.846Z,967.94
2016-08-11T02:01:50.847Z,967.98
2016-08-11T02:02:50.860Z,968.02
2016-08-11T02:03:50.861Z,967.98
2016-08-11T02:04:50.872Z,968
2016-08-11T02:05:50.880Z,968
2016-08-11T02:06:50.893Z,968.01
2016-08-11T02:07:50.904Z,968.03
2016-08-11T02:08:50.909Z,968.01
2016-08-11T02:09:50.912Z,968.03
2016-08-11T02:10:50.917Z,968.07
2016-08-11T02:11:50.929Z,968.08
2016-08-11T02:12:50.937Z,968.1
2016-08-11T02:13:50.949Z,968.13
2016-08-11T02:14:50.955Z,968.11
2016-08-11T02:15:50.961Z,968.16
2016-08-11T02:16:50.971Z,968.16
2016-08-11T02:17:50.979Z,968.16
2016-08-11T02:18:50.987Z,968.2
2016-08-11T02:19:50.995Z,968.19
2016-08-11T02:20:50.993Z,968.17
2016-08-11T02:21:51.000Z,968.17
2016-08-11T02:22:51.011Z,968.2
2016-08-11T02:23:51.020Z,968.21
2016-08-11T02:24:51.023Z,968.22
2016-08-11T02:25:51.031Z,968.24
2016-08-11T02:26:51.040Z,968.23
2016-08-11T02:27:51.052Z,968.24
2016-08-11T02:28:51.067Z,968.25
2016-08-11T02:29:51.068Z,968.24
2016-08-11T02:30:51.071Z,968.24
2016-08-11T02:31:51.080Z,968.27
2016-08-11T02:32:51.096Z,968.29
2016-08-11T02:33:51.093Z,968.25
2016-08-11T02:34:51.100Z,968.25
2016-08-11T02:35:51.118Z,968.31
2016-08-11T02:36:51.119Z,968.29
2016-08-11T02:37:51.133Z,968.34
2016-08-11T02:38:51.140Z,968.34
2016-08-11T02:39:51.149Z,968.31
2016-08-11T02:40:51.159Z,968.33
2016-08-11T02:41:51.163Z,968.34
2016-08-11T02:42:51.169Z,968.37
2016-08-11T02:43:51.171Z,968.37
2016-08-11T02:44:51.178Z,968.34
2016-08-11T02:45:51.193Z,968.4
2016-08-11T02:46:51.206Z,968.39
2016-08-11T02:47:51.202Z,968.4
2016-08-11T02:48:51.212Z,968.44
2016-08-11T02:49:51.218Z,968.43
2016-08-11T02:50:51.233Z,968.42
2016-08-11T02:51:51.231Z,968.45
2016-08-11T02:52:51.248Z,968.41
2016-08-11T02:53:51.250Z,968.42
2016-08-11T02:54:51.265Z,968.43
2016-08-11T02:55:51.262Z,968.42
2016-08-11T02:56:51.282Z,968.4
2016-08-11T02:57:51.286Z,968.42
2016-08-11T02:59:51.306Z,968.39
2016-08-11T03:00:51.301Z,968.37
2016-08-11T03:01:51.309Z,968.36
2016-08-11T03:02:51.322Z,968.39
2016-08-11T03:03:51.333Z,968.41
2016-08-11T03:04:51.333Z,968.38
2016-08-11T03:05:51.349Z,968.38
2016-08-11T03:06:51.348Z,968.38
2016-08-11T03:07:51.358Z,968.34
2016-08-11T03:08:51.362Z,968.33
2016-08-11T03:09:51.378Z,968.31
2016-08-11T03:10:51.378Z,968.31
2016-08-11T03:11:51.391Z,968.33
2016-08-11T03:12:51.393Z,968.32
2016-08-11T03:14:51.410Z,968.35
2016-08-11T03:15:51.417Z,968.35
2016-08-11T03:16:51.426Z,968.35
2016-08-11T03:17:51.437Z,968.38
2016-08-11T03:18:51.440Z,968.37
2016-08-11T03:19:51.448Z,968.41
2016-08-11T03:20:51.462Z,968.44
2016-08-11T03:21:51.487Z,968.46
2016-08-11T03:22:51.477Z,968.45
2016-08-11T03:23:51.474Z,968.43
2016-08-11T03:24:51.485Z,968.38
2016-08-11T03:25:51.499Z,968.43
2016-08-11T03:26:51.507Z,968.42
2016-08-11T03:27:51.517Z,968.4
2016-08-11T03:29:51.523Z,968.47
2016-08-11T03:30:51.537Z,968.45
2016-08-11T03:31:51.545Z,968.46
2016-08-11T03:32:51.546Z,968.47
2016-08-11T03:33:51.550Z,968.44
2016-08-11T03:34:51.560Z,968.46
2016-08-11T03:35:51.581Z,968.46
2016-08-11T03:36:51.576Z,968.48
2016-08-11T03:37:51.590Z,968.48
2016-08-11T03:38:51.590Z,968.47
2016-08-11T03:39:51.599Z,968.46
2016-08-11T03:40:51.611Z,968.47
2016-08-11T03:41:51.620Z,968.48
2016-08-11T03:42:51.629Z,968.44
2016-08-11T03:44:51.635Z,968.44
2016-08-11T03:45:51.644Z,968.46
2016-08-11T03:46:51.660Z,968.4
2016-08-11T03:47:51.662Z,968.41
2016-08-11T03:48:51.675Z,968.44
2016-08-11T03:49:51.683Z,968.4
2016-08-11T03:50:51.689Z,968.4
2016-08-11T03:51:51.699Z,968.39
2016-08-11T03:52:51.703Z,968.38
2016-08-11T03:53:51.714Z,968.38
2016-08-11T03:54:51.718Z,968.38
2016-08-11T03:55:51.728Z,968.41
2016-08-11T03:56:51.728Z,968.41
2016-08-11T03:57:51.744Z,968.42
2016-08-11T03:59:51.757Z,968.49
2016-08-11T04:00:51.760Z,968.48
2016-08-11T04:01:51.772Z,968.45
2016-08-11T04:02:51.774Z,968.49
2016-08-11T04:03:51.789Z,968.48
2016-08-11T04:04:51.790Z,968.5
2016-08-11T04:05:51.802Z,968.53
2016-08-11T04:06:51.810Z,968.54
2016-08-11T04:07:51.819Z,968.55
2016-08-11T04:08:51.824Z,968.57
2016-08-11T04:09:51.827Z,968.6
2016-08-11T04:10:51.840Z,968.58
2016-08-11T04:11:51.841Z,968.62
2016-08-11T04:12:51.853Z,968.61
2016-08-11T04:14:51.870Z,968.66
2016-08-11T04:15:51.875Z,968.69
2016-08-11T04:16:51.879Z,968.64
2016-08-11T04:17:51.888Z,968.7
2016-08-11T04:18:51.895Z,968.68
2016-08-11T04:19:51.903Z,968.71
2016-08-11T04:20:51.919Z,968.72
2016-08-11T04:21:51.920Z,968.76
2016-08-11T04:22:51.927Z,968.81
2016-08-11T04:23:51.942Z,968.77
2016-08-11T04:24:51.942Z,968.82
2016-08-11T04:25:51.952Z,968.81
2016-08-11T04:26:51.957Z,968.87
2016-08-11T04:27:51.971Z,968.8
2016-08-11T04:28:51.980Z,968.87
2016-08-11T04:29:51.986Z,968.86
2016-08-11T04:30:51.992Z,968.83
2016-08-11T04:31:51.996Z,968.87
2016-08-11T04:32:52.010Z,968.85
2016-08-11T04:33:52.010Z,968.88
2016-08-11T04:34:52.019Z,968.89
2016-08-11T04:35:52.033Z,968.89
2016-08-11T04:36:52.034Z,968.9
2016-08-11T04:37:52.042Z,968.91
2016-08-11T04:38:52.058Z,968.91
2016-08-11T04:39:52.057Z,968.92
2016-08-11T04:40:52.070Z,968.91
2016-08-11T04:41:52.069Z,968.91
2016-08-11T04:42:52.087Z,968.96
2016-08-11T04:44:52.092Z,968.92
2016-08-11T04:45:52.099Z,968.99
2016-08-11T04:46:52.111Z,968.96
2016-08-11T04:47:52.122Z,968.99
2016-08-11T04:48:52.130Z,969
2016-08-11T04:49:52.133Z,968.99
2016-08-11T04:50:52.141Z,968.95
2016-08-11T04:51:52.152Z,968.99
2016-08-11T04:52:52.162Z,968.98
2016-08-11T04:53:52.168Z,968.97
2016-08-11T04:54:52.176Z,969.02
2016-08-11T04:55:52.183Z,968.97
2016-08-11T04:56:52.192Z,969
2016-08-11T04:57:52.192Z,969.05
2016-08-11T04:58:52.201Z,969.04
2016-08-11T04:59:52.207Z,969.05
2016-08-11T05:00:52.223Z,969.05
2016-08-11T05:01:52.230Z,969.06
2016-08-11T05:02:52.238Z,969.06
2016-08-11T05:03:52.246Z,969.05
2016-08-11T05:04:52.250Z,969.08
2016-08-11T05:05:52.253Z,969.09
2016-08-11T05:06:52.261Z,969.09
2016-08-11T05:07:52.276Z,969.13
2016-08-11T05:08:52.274Z,969.1
2016-08-11T05:09:52.281Z,969.13
2016-08-11T05:10:52.298Z,969.15
2016-08-11T05:11:52.297Z,969.12
2016-08-11T05:12:52.310Z,969.14
2016-08-11T05:13:52.314Z,969.12
2016-08-11T05:14:52.321Z,969.14
2016-08-11T05:15:52.329Z,969.13
2016-08-11T05:16:52.336Z,969.17
2016-08-11T05:17:52.351Z,969.15
2016-08-11T05:18:52.351Z,969.16
2016-08-11T05:19:52.366Z,969.15
2016-08-11T05:20:52.367Z,969.17
2016-08-11T05:21:52.374Z,969.18
2016-08-11T05:22:52.390Z,969.21
2016-08-11T05:23:52.390Z,969.21
2016-08-11T05:24:52.400Z,969.25
2016-08-11T05:25:52.411Z,969.23
2016-08-11T05:26:52.413Z,969.26
2016-08-11T05:27:52.428Z,969.3
2016-08-11T05:28:52.437Z,969.3
2016-08-11T05:29:52.443Z,969.32
2016-08-11T05:30:52.449Z,969.32
2016-08-11T05:31:52.451Z,969.36
2016-08-11T05:32:52.467Z,969.37
2016-08-11T05:33:52.467Z,969.39
2016-08-11T05:34:52.474Z,969.34
2016-08-11T05:35:52.494Z,969.34
2016-08-11T05:36:52.499Z,969.36
2016-08-11T05:37:52.499Z,969.36
2016-08-11T05:38:52.506Z,969.33
2016-08-11T05:39:52.514Z,969.36
2016-08-11T05:40:52.525Z,969.35
2016-08-11T05:41:52.535Z,969.36
2016-08-11T05:42:52.538Z,969.34
2016-08-11T05:43:52.545Z,969.35
2016-08-11T05:44:52.557Z,969.38
2016-08-11T05:45:52.568Z,969.39
2016-08-11T05:46:52.567Z,969.36
2016-08-11T05:47:52.582Z,969.36
2016-08-11T05:48:52.580Z,969.35
2016-08-11T05:49:52.597Z,969.34
2016-08-11T05:50:52.596Z,969.34
2016-08-11T05:51:52.612Z,969.36
2016-08-11T05:52:52.620Z,969.33
2016-08-11T05:53:52.629Z,969.34
2016-08-11T05:54:52.637Z,969.37
2016-08-11T05:55:52.644Z,969.36
2016-08-11T05:56:52.645Z,969.36
2016-08-11T05:57:52.660Z,969.34
2016-08-11T05:58:52.668Z,969.37
2016-08-11T05:59:52.674Z,969.39
2016-08-11T06:00:52.679Z,969.42
2016-08-11T06:01:52.681Z,969.38
2016-08-11T06:02:52.689Z,969.43
2016-08-11T06:03:52.704Z,969.41
2016-08-11T06:04:52.704Z,969.45
2016-08-11T06:05:52.719Z,969.42
2016-08-11T06:06:52.726Z,969.43
2016-08-11T06:07:52.735Z,969.48
2016-08-11T06:08:52.749Z,969.44
2016-08-11T06:09:52.745Z,969.47
2016-08-11T06:10:52.751Z,969.48
2016-08-11T06:11:52.759Z,969.45
2016-08-11T06:12:52.773Z,969.51
2016-08-11T06:13:52.782Z,969.52
2016-08-11T06:14:52.784Z,969.5
2016-08-11T06:15:52.796Z,969.49
2016-08-11T06:16:52.803Z,969.45
2016-08-11T06:17:52.804Z,969.48
2016-08-11T06:18:52.815Z,969.49
2016-08-11T06:19:52.821Z,969.46
2016-08-11T06:20:52.830Z,969.49
2016-08-11T06:21:52.834Z,969.5
2016-08-11T06:22:52.841Z,969.52
2016-08-11T06:23:52.860Z,969.52
2016-08-11T06:24:52.866Z,969.54
2016-08-11T06:25:52.868Z,969.58
2016-08-11T06:26:52.882Z,969.58
2016-08-11T06:27:52.889Z,969.62
2016-08-11T06:28:52.892Z,969.59
2016-08-11T06:29:52.908Z,969.57
2016-08-11T06:30:52.910Z,969.58
2016-08-11T06:31:52.912Z,969.63
2016-08-11T06:32:52.921Z,969.62
2016-08-11T06:33:52.936Z,969.65
2016-08-11T06:34:52.938Z,969.68
2016-08-11T06:35:52.942Z,969.65
2016-08-11T06:36:52.956Z,969.72
2016-08-11T06:37:52.966Z,969.68
2016-08-11T06:38:52.972Z,969.69
2016-08-11T06:39:52.981Z,969.72
2016-08-11T06:40:52.989Z,969.76
2016-08-11T06:41:53.000Z,969.78
2016-08-11T06:42:52.997Z,969.76
2016-08-11T06:43:53.013Z,969.77
2016-08-11T06:44:53.010Z,969.77
2016-08-11T06:45:53.028Z,969.78
2016-08-11T06:46:53.028Z,969.77
2016-08-11T06:47:53.044Z,969.76
2016-08-11T06:48:53.049Z,969.75
2016-08-11T06:49:53.052Z,969.75
2016-08-11T06:50:53.059Z,969.74
2016-08-11T06:51:53.065Z,969.78
2016-08-11T06:52:53.078Z,969.76
2016-08-11T06:53:53.087Z,969.74
2016-08-11T06:54:53.086Z,969.73
2016-08-11T06:55:53.093Z,969.76
2016-08-11T06:56:53.111Z,969.76
2016-08-11T06:57:53.116Z,969.8
2016-08-11T06:58:53.118Z,969.76
2016-08-11T06:59:53.123Z,969.74
2016-08-11T07:00:53.130Z,969.68
2016-08-11T07:01:53.139Z,969.7
2016-08-11T07:02:53.152Z,969.72
2016-08-11T07:03:53.152Z,969.71
2016-08-11T07:04:53.169Z,969.7
2016-08-11T07:05:53.173Z,969.75
2016-08-11T07:06:53.175Z,969.7
2016-08-11T07:07:53.181Z,969.72
2016-08-11T07:08:53.191Z,969.71
2016-08-11T07:09:53.204Z,969.73
2016-08-11T07:10:53.203Z,969.7
2016-08-11T07:11:53.212Z,969.71
2016-08-11T07:12:53.217Z,969.71
2016-08-11T07:13:53.229Z,969.71
2016-08-11T07:14:53.233Z,969.69
2016-08-11T07:15:53.239Z,969.71
2016-08-11T07:16:53.256Z,969.73
2016-08-11T07:17:53.260Z,969.77
2016-08-11T07:18:53.263Z,969.79
2016-08-11T07:19:53.270Z,969.82
2016-08-11T07:20:53.285Z,969.79
2016-08-11T07:21:53.283Z,969.82
2016-08-11T07:22:53.340Z,969.82
2016-08-11T07:23:53.306Z,969.81
2016-08-11T07:24:53.328Z,969.82
2016-08-11T07:25:53.323Z,969.8
2016-08-11T07:26:53.322Z,969.81
2016-08-11T07:27:53.327Z,969.82
2016-08-11T07:28:53.334Z,969.8
2016-08-11T07:29:53.348Z,969.81
2016-08-11T07:30:53.355Z,969.81
2016-08-11T07:31:53.355Z,969.81
2016-08-11T07:32:53.369Z,969.83
2016-08-11T07:33:53.371Z,969.82
2016-08-11T07:34:53.376Z,969.84
2016-08-11T07:35:53.388Z,969.84
2016-08-11T07:36:53.390Z,969.84
2016-08-11T07:37:53.398Z,969.82
2016-08-11T07:38:53.406Z,969.81
2016-08-11T07:39:53.411Z,969.83
2016-08-11T07:40:53.423Z,969.84
2016-08-11T07:41:53.427Z,969.84
2016-08-11T07:42:53.442Z,969.84
2016-08-11T07:43:53.443Z,969.85
2016-08-11T07:44:53.456Z,969.86
2016-08-11T07:45:53.456Z,969.86
2016-08-11T07:46:53.466Z,969.88
2016-08-11T07:47:53.482Z,969.9
2016-08-11T07:48:53.480Z,969.87
2016-08-11T07:49:53.486Z,969.87
2016-08-11T07:50:53.501Z,969.83
2016-08-11T07:51:53.527Z,969.91
2016-08-11T07:52:53.515Z,969.89
2016-08-11T07:53:53.525Z,969.91
2016-08-11T07:54:53.526Z,969.92
2016-08-11T07:55:53.539Z,969.93
2016-08-11T07:56:53.546Z,969.9
2016-08-11T07:57:53.547Z,969.92
2016-08-11T07:58:53.556Z,969.93
2016-08-11T07:59:53.566Z,969.92
2016-08-11T08:00:53.578Z,969.93
2016-08-11T08:01:53.589Z,969.92
2016-08-11T08:02:53.587Z,969.95
2016-08-11T08:03:53.594Z,969.93
2016-08-11T08:04:53.608Z,969.98
2016-08-11T08:05:53.608Z,969.94
2016-08-11T08:06:53.622Z,969.96
2016-08-11T08:07:53.623Z,969.99
2016-08-11T08:08:53.642Z,970.01
2016-08-11T08:09:53.646Z,969.98
2016-08-11T08:10:53.648Z,969.99
2016-08-11T08:11:53.655Z,970.01
2016-08-11T08:12:53.679Z,969.96
2016-08-11T08:13:53.678Z,970.01
2016-08-11T08:14:53.677Z,970.02
2016-08-11T08:15:53.694Z,970.01
2016-08-11T08:16:53.707Z,969.99
2016-08-11T08:17:53.703Z,969.97
2016-08-11T08:18:53.711Z,969.96
2016-08-11T08:19:53.722Z,969.97
2016-08-11T08:20:53.734Z,969.95
2016-08-11T08:21:53.733Z,970
2016-08-11T08:22:53.748Z,970.02
2016-08-11T08:23:53.751Z,970.04
2016-08-11T08:24:53.761Z,970.07
2016-08-11T08:25:53.770Z,970.03
2016-08-11T08:26:53.778Z,970
2016-08-11T08:27:53.779Z,970.01
2016-08-11T08:28:53.785Z,970
2016-08-11T08:29:53.804Z,970
2016-08-11T08:30:53.811Z,969.98
2016-08-11T08:31:53.812Z,969.97
2016-08-11T08:32:53.826Z,969.99
2016-08-11T08:33:53.826Z,969.95
2016-08-11T08:34:53.835Z,969.95
2016-08-11T08:35:53.849Z,969.92
2016-08-11T08:36:53.860Z,969.88
2016-08-11T08:37:53.867Z,969.9
2016-08-11T08:38:53.875Z,969.91
2016-08-11T08:39:53.887Z,969.92
2016-08-11T08:40:53.885Z,969.9
2016-08-11T08:41:53.896Z,969.88
2016-08-11T08:42:53.907Z,969.91
2016-08-11T08:43:53.914Z,969.89
2016-08-11T08:44:53.922Z,969.9
2016-08-11T08:45:53.930Z,969.89
2016-08-11T08:46:53.930Z,969.88
2016-08-11T08:47:53.937Z,969.86
2016-08-11T08:48:53.952Z,969.86
2016-08-11T08:49:53.955Z,969.84
2016-08-11T08:50:53.960Z,969.83
2016-08-11T08:51:53.971Z,969.83
2016-08-11T08:52:53.979Z,969.86
2016-08-11T08:53:53.986Z,969.89
2016-08-11T08:54:53.991Z,969.84
2016-08-11T08:55:54.007Z,969.83
2016-08-11T08:56:54.011Z,969.87
2016-08-11T08:57:54.014Z,969.86
2016-08-11T08:58:54.024Z,969.86
2016-08-11T08:59:54.040Z,969.85
2016-08-11T09:00:54.043Z,969.83
2016-08-11T09:01:54.055Z,969.81
2016-08-11T09:02:54.060Z,969.83
2016-08-11T09:03:54.071Z,969.8
2016-08-11T09:04:54.079Z,969.81
2016-08-11T09:05:54.082Z,969.78
2016-08-11T09:06:54.097Z,969.8
2016-08-11T09:07:54.097Z,969.82
2016-08-11T09:08:54.110Z,969.81
2016-08-11T09:09:54.122Z,969.82
2016-08-11T09:10:54.127Z,969.82
2016-08-11T09:11:54.146Z,969.83
2016-08-11T09:12:54.135Z,969.84
2016-08-11T09:13:54.150Z,969.82
2016-08-11T09:14:54.152Z,969.8
2016-08-11T09:15:54.166Z,969.81
2016-08-11T09:16:54.169Z,969.8
2016-08-11T09:17:54.183Z,969.76
2016-08-11T09:18:54.183Z,969.76
2016-08-11T09:19:54.193Z,969.75
2016-08-11T09:20:54.202Z,969.79
2016-08-11T09:21:54.209Z,969.75
2016-08-11T09:22:54.223Z,969.78
2016-08-11T09:23:54.233Z,969.73
2016-08-11T09:24:54.239Z,969.74
2016-08-11T09:25:54.247Z,969.75
2016-08-11T09:26:54.257Z,969.74
2016-08-11T09:27:54.256Z,969.74
2016-08-11T09:28:54.274Z,969.75
2016-08-11T09:29:54.272Z,969.75
2016-08-11T09:31:07.118Z,969.81
2016-08-11T09:32:07.133Z,969.77
2016-08-11T09:33:07.134Z,969.79
2016-08-11T09:34:07.141Z,969.77
2016-08-11T09:35:07.148Z,969.76
2016-08-11T09:36:07.163Z,969.75
2016-08-11T09:37:07.166Z,969.76
2016-08-11T09:38:07.176Z,969.75
2016-08-11T09:39:07.187Z,969.7
2016-08-11T09:40:07.197Z,969.68
2016-08-11T09:41:07.203Z,969.67
2016-08-11T09:42:07.216Z,969.65
2016-08-11T09:43:07.210Z,969.7
2016-08-11T09:44:07.222Z,969.64
2016-08-11T09:45:07.227Z,969.68
2016-08-11T09:46:07.235Z,969.69
2016-08-11T09:47:07.255Z,969.69
2016-08-11T09:48:07.255Z,969.7
2016-08-11T09:49:07.268Z,969.68
2016-08-11T09:50:07.272Z,969.68
2016-08-11T09:51:07.273Z,969.67
2016-08-11T09:52:07.290Z,969.65
2016-08-11T09:53:07.297Z,969.65
2016-08-11T09:54:07.304Z,969.64
2016-08-11T09:55:07.305Z,969.68
2016-08-11T09:56:07.323Z,969.62
2016-08-11T09:57:07.325Z,969.64
2016-08-11T09:58:07.338Z,969.64
2016-08-11T09:59:07.340Z,969.63
2016-08-11T10:00:07.345Z,969.64
2016-08-11T10:01:07.366Z,969.64
2016-08-11T10:02:07.357Z,969.63
2016-08-11T10:03:07.367Z,969.61
2016-08-11T10:04:07.378Z,969.64
2016-08-11T10:05:07.391Z,969.63
2016-08-11T10:06:07.392Z,969.66
2016-08-11T10:07:07.407Z,969.64
2016-08-11T10:08:07.405Z,969.62
2016-08-11T10:09:07.424Z,969.63
2016-08-11T10:10:07.430Z,969.66
2016-08-11T10:11:07.435Z,969.64
2016-08-11T10:12:07.438Z,969.66
2016-08-11T10:13:07.452Z,969.65
2016-08-11T10:14:07.456Z,969.63
2016-08-11T10:15:07.461Z,969.6
2016-08-11T10:16:07.475Z,969.63
2016-08-11T10:17:07.486Z,969.58
2016-08-11T10:18:07.488Z,969.6
2016-08-11T10:19:07.494Z,969.54
2016-08-11T10:20:07.498Z,969.56
2016-08-11T10:21:07.509Z,969.55
2016-08-11T10:22:07.537Z,969.57
2016-08-11T10:23:07.573Z,969.57
2016-08-11T10:24:07.534Z,969.57
2016-08-11T10:25:07.550Z,969.56
2016-08-11T10:26:07.552Z,969.54
2016-08-11T10:27:07.559Z,969.59
2016-08-11T10:28:07.563Z,969.52
2016-08-11T10:29:07.579Z,969.6
2016-08-11T10:30:07.586Z,969.59
2016-08-11T10:31:07.584Z,969.6
2016-08-11T10:32:07.595Z,969.6
2016-08-11T10:33:07.600Z,969.57
2016-08-11T10:34:07.616Z,969.53
2016-08-11T10:35:07.614Z,969.54
2016-08-11T10:36:07.632Z,969.53
2016-08-11T10:37:07.638Z,969.52
2016-08-11T10:38:07.646Z,969.53
2016-08-11T10:39:07.649Z,969.48
2016-08-11T10:40:07.665Z,969.47
2016-08-11T10:41:07.671Z,969.46
2016-08-11T10:42:07.670Z,969.46
2016-08-11T10:43:07.678Z,969.46
2016-08-11T10:44:07.687Z,969.47
2016-08-11T10:45:07.699Z,969.46
2016-08-11T10:46:07.707Z,969.48
2016-08-11T10:47:07.715Z,969.49
2016-08-11T10:48:07.719Z,969.48
2016-08-11T10:49:07.719Z,969.49
2016-08-11T10:50:07.734Z,969.5
2016-08-11T10:51:07.732Z,969.49
2016-08-11T10:52:07.738Z,969.48
2016-08-11T10:53:07.744Z,969.44
2016-08-11T10:54:07.753Z,969.38
2016-08-11T10:55:07.777Z,969.39
2016-08-11T10:56:07.767Z,969.36
2016-08-11T10:57:07.781Z,969.37
2016-08-11T10:58:07.780Z,969.34
2016-08-11T10:59:07.789Z,969.33
2016-08-11T11:00:07.796Z,969.29
2016-08-11T11:01:07.812Z,969.23
2016-08-11T11:02:07.817Z,969.25
2016-08-11T11:03:07.827Z,969.23
2016-08-11T11:04:07.826Z,969.24
2016-08-11T11:05:07.843Z,969.18
2016-08-11T11:06:07.843Z,969.15
2016-08-11T11:07:07.849Z,969.11
2016-08-11T11:08:07.862Z,969.15
2016-08-11T11:09:07.873Z,969.13
2016-08-11T11:10:07.873Z,969.11
2016-08-11T11:11:07.889Z,969.1
2016-08-11T11:12:07.892Z,969.08
2016-08-11T11:13:07.903Z,969.09
2016-08-11T11:14:07.901Z,969.14
2016-08-11T11:15:07.917Z,969.15
2016-08-11T11:16:07.917Z,969.12
2016-08-11T11:17:07.928Z,969.07
2016-08-11T11:18:07.932Z,969.1
2016-08-11T11:19:07.942Z,969.11
2016-08-11T11:20:07.952Z,969.14
2016-08-11T11:21:07.959Z,969.08
2016-08-11T11:22:07.970Z,969.09
2016-08-11T11:23:07.971Z,969.13
2016-08-11T11:24:07.980Z,969.08
2016-08-11T11:25:07.988Z,969.11
2016-08-11T11:26:07.994Z,969.13
2016-08-11T11:27:08.001Z,969.1
2016-08-11T11:28:08.012Z,969.11
2016-08-11T11:29:08.025Z,969.11
2016-08-11T11:30:08.025Z,969.09
2016-08-11T11:31:08.037Z,969.1
2016-08-11T11:32:08.050Z,969.07
2016-08-11T11:33:08.059Z,969.03
2016-08-11T11:34:08.076Z,969.07
2016-08-11T11:35:08.075Z,969.07
2016-08-11T11:36:08.081Z,969.04
2016-08-11T11:37:08.093Z,969.06
2016-08-11T11:38:08.086Z,969.07
2016-08-11T11:39:08.107Z,969.03
2016-08-11T11:40:08.105Z,969.07
2016-08-11T11:41:08.122Z,969.06
2016-08-11T11:42:08.129Z,969.06
2016-08-11T11:43:08.129Z,969.03
2016-08-11T11:44:08.135Z,969.04
2016-08-11T11:45:08.152Z,969.04
2016-08-11T11:46:08.154Z,969.03
2016-08-11T11:47:08.168Z,969.04
2016-08-11T11:48:08.170Z,969.07
2016-08-11T11:49:08.183Z,969.03
2016-08-11T11:50:08.185Z,969.07
2016-08-11T11:51:08.199Z,969.03
2016-08-11T11:52:08.200Z,969.03
2016-08-11T11:53:08.211Z,969.09
2016-08-11T11:54:08.223Z,969.07
2016-08-11T11:55:08.226Z,969.02
2016-08-11T11:56:08.237Z,969.02
2016-08-11T11:57:08.250Z,969.07
2016-08-11T11:58:08.248Z,969.08
2016-08-11T11:59:08.266Z,969.04
2016-08-11T12:01:08.279Z,969.05
2016-08-11T12:02:08.288Z,969.01
2016-08-11T12:03:08.297Z,969.01
2016-08-11T12:04:08.299Z,969.06
2016-08-11T12:05:08.312Z,969.04
2016-08-11T12:06:08.312Z,968.97
2016-08-11T12:07:08.323Z,969.01
2016-08-11T12:08:08.341Z,969.05
2016-08-11T12:09:08.339Z,968.98
2016-08-11T12:10:08.351Z,968.97
2016-08-11T12:11:08.353Z,968.93
2016-08-11T12:12:08.370Z,968.96
2016-08-11T12:13:08.376Z,968.97
2016-08-11T12:14:08.387Z,968.9
2016-08-11T12:15:08.386Z,968.92
2016-08-11T12:16:08.393Z,968.89
2016-08-11T12:17:08.419Z,968.9
2016-08-11T12:18:08.426Z,968.87
2016-08-11T12:19:08.426Z,968.91
2016-08-11T12:20:08.433Z,968.9
2016-08-11T12:21:08.444Z,968.95
2016-08-11T12:22:08.450Z,968.86
2016-08-11T12:23:08.459Z,968.85
2016-08-11T12:24:08.461Z,968.89
2016-08-11T12:25:08.477Z,968.86
2016-08-11T12:26:08.478Z,968.84
2016-08-11T12:27:08.490Z,968.83
2016-08-11T12:28:08.499Z,968.85
2016-08-11T12:29:08.509Z,968.85
2016-08-11T12:30:08.519Z,968.86
2016-08-11T12:31:08.535Z,968.8
2016-08-11T12:32:08.525Z,968.82
2016-08-11T12:33:08.534Z,968.83
2016-08-11T12:34:08.548Z,968.85
2016-08-11T12:35:08.549Z,968.81
2016-08-11T12:36:08.556Z,968.85
2016-08-11T12:37:08.573Z,968.83
2016-08-11T12:38:08.579Z,968.82
2016-08-11T12:39:08.581Z,968.83
2016-08-11T12:40:08.588Z,968.84